< < Back
Terminal Aerodrome Forecast


Current Version              Previous Versions:   1  2  3  4  5  6  7  8  9  

Terminal Aerodrome Forecast

254
FTUS44 KMRX 240432 AAA
TAFTYS
TAF AMD
KTYS 240432Z 2405/2424 20015G25KT P6SM BKN050
     FM240800 22014KT P6SM OVC025
     FM241400 23018G32KT P6SM BKN035=



Latest METAR

139
SAUS80 KWBC 241500
MTRTYS
METAR KTYS 241453Z 21020G29KT 10SM BKN050 18/12 A2970 RMK AO2 PK WND
22031/1429 SLP048 T01830122 53017


USA.gov is the U.S. government's official web portal to all federal, state and local government web resources and services.